sensor_id;sensor_type;location;lat;lon;timestamp;temperature;humidity
5041;DHT22;2539;52.568;13.364;2024-03-08T00:00:15;1.20;99.90
5041;DHT22;2539;52.568;13.364;2024-03-08T00:02:45;1.20;99.90
5041;DHT22;2539;52.568;13.364;2024-03-08T00:05:12;1.20;99.90
5041;DHT22;2539;52.568;13.364;2024-03-08T00:07:39;1.30;99.90
5041;DHT22;2539;52.568;13.364;2024-03-08T00:10:07;1.20;99.90
5041;DHT22;2539;52.568;13.364;2024-03-08T00:12:41;1.20;99.90
5041;DHT22;2539;52.568;13.364;2024-03-08T00:15:11;1.20;99.90
5041;DHT22;2539;52.568;13.364;2024-03-08T00:17:40;1.20;99.90
5041;DHT22;2539;52.568;13.364;2024-03-08T00:20:07;1.10;99.90
5041;DHT22;2539;52.568;13.364;2024-03-08T00:22:37;1.10;99.90
5041;DHT22;2539;52.568;13.364;2024-03-08T00:25:05;1.10;99.90
5041;DHT22;2539;52.568;13.364;2024-03-08T00:27:31;1.10;99.90
5041;DHT22;2539;52.568;13.364;2024-03-08T00:29:58;1.20;99.90
5041;DHT22;2539;52.568;13.364;2024-03-08T00:32:24;1.20;99.90
5041;DHT22;2539;52.568;13.364;2024-03-08T00:34:51;1.10;99.90
5041;DHT22;2539;52.568;13.364;2024-03-08T00:37:21;1.20;99.90
5041;DHT22;2539;52.568;13.364;2024-03-08T00:39:51;1.10;99.90
5041;DHT22;2539;52.568;13.364;2024-03-08T00:42:18;1.00;99.90
5041;DHT22;2539;52.568;13.364;2024-03-08T00:44:45;1.00;99.90
5041;DHT22;2539;52.568;13.364;2024-03-08T00:47:11;0.90;99.90
5041;DHT22;2539;52.568;13.364;2024-03-08T00:49:37;0.90;99.90
5041;DHT22;2539;52.568;13.364;2024-03-08T00:52:05;0.70;99.90
5041;DHT22;2539;52.568;13.364;2024-03-08T00:54:35;0.80;99.90
5041;DHT22;2539;52.568;13.364;2024-03-08T00:57:02;0.80;99.90
5041;DHT22;2539;52.568;13.364;2024-03-08T00:59:29;0.70;99.90
5041;DHT22;2539;52.568;13.364;2024-03-08T01:01:59;0.70;99.90
5041;DHT22;2539;52.568;13.364;2024-03-08T01:04:28;0.70;99.90
5041;DHT22;2539;52.568;13.364;2024-03-08T01:06:59;0.70;99.90
5041;DHT22;2539;52.568;13.364;2024-03-08T01:09:26;0.70;99.90
5041;DHT22;2539;52.568;13.364;2024-03-08T01:11:54;0.70;99.90
5041;DHT22;2539;52.568;13.364;2024-03-08T01:14:21;0.70;99.90
5041;DHT22;2539;52.568;13.364;2024-03-08T01:16:50;0.70;99.90
5041;DHT22;2539;52.568;13.364;2024-03-08T01:19:16;0.80;99.90
5041;DHT22;2539;52.568;13.364;2024-03-08T01:21:43;0.80;99.90
5041;DHT22;2539;52.568;13.364;2024-03-08T01:24:09;0.80;99.90
5041;DHT22;2539;52.568;13.364;2024-03-08T01:26:37;0.90;99.90
5041;DHT22;2539;52.568;13.364;2024-03-08T01:29:04;0.90;99.90
5041;DHT22;2539;52.568;13.364;2024-03-08T01:31:32;0.80;99.90
5041;DHT22;2539;52.568;13.364;2024-03-08T01:33:58;0.90;99.90
5041;DHT22;2539;52.568;13.364;2024-03-08T01:36:25;0.70;99.90
5041;DHT22;2539;52.568;13.364;2024-03-08T01:38:52;0.60;99.90
5041;DHT22;2539;52.568;13.364;2024-03-08T01:41:18;0.50;99.90
5041;DHT22;2539;52.568;13.364;2024-03-08T01:43:45;0.50;99.90
5041;DHT22;2539;52.568;13.364;2024-03-08T01:46:15;0.40;99.90
5041;DHT22;2539;52.568;13.364;2024-03-08T01:48:44;0.30;99.90
5041;DHT22;2539;52.568;13.364;2024-03-08T01:51:12;0.30;99.90
5041;DHT22;2539;52.568;13.364;2024-03-08T01:53:38;0.30;99.90
5041;DHT22;2539;52.568;13.364;2024-03-08T01:56:06;0.30;99.90
5041;DHT22;2539;52.568;13.364;2024-03-08T01:58:33;0.30;99.90
5041;DHT22;2539;52.568;13.364;2024-03-08T02:01:00;0.30;99.90
5041;DHT22;2539;52.568;13.364;2024-03-08T02:03:31;0.20;99.90
5041;DHT22;2539;52.568;13.364;2024-03-08T02:05:57;0.20;99.90
5041;DHT22;2539;52.568;13.364;2024-03-08T02:08:25;0.20;99.90
5041;DHT22;2539;52.568;13.364;2024-03-08T02:10:51;0.10;99.90
5041;DHT22;2539;52.568;13.364;2024-03-08T02:13:17;0.10;99.90
5041;DHT22;2539;52.568;13.364;2024-03-08T02:15:58;0.10;99.90
5041;DHT22;2539;52.568;13.364;2024-03-08T02:18:29;0.10;99.90
5041;DHT22;2539;52.568;13.364;2024-03-08T02:20:56;0.10;99.90
5041;DHT22;2539;52.568;13.364;2024-03-08T02:23:23;0.10;99.90
5041;DHT22;2539;52.568;13.364;2024-03-08T02:25:51;0.20;99.90
5041;DHT22;2539;52.568;13.364;2024-03-08T02:28:17;0.10;99.90
5041;DHT22;2539;52.568;13.364;2024-03-08T02:30:47;0.20;99.90
5041;DHT22;2539;52.568;13.364;2024-03-08T02:33:15;0.10;99.90
5041;DHT22;2539;52.568;13.364;2024-03-08T02:35:44;0.00;99.90
5041;DHT22;2539;52.568;13.364;2024-03-08T02:38:13;0.00;99.90
5041;DHT22;2539;52.568;13.364;2024-03-08T02:40:45;-0.10;99.90
5041;DHT22;2539;52.568;13.364;2024-03-08T02:43:13;-0.10;99.90
5041;DHT22;2539;52.568;13.364;2024-03-08T02:45:41;-0.10;99.90
5041;DHT22;2539;52.568;13.364;2024-03-08T02:48:12;-0.10;99.90
5041;DHT22;2539;52.568;13.364;2024-03-08T02:50:38;0.00;99.90
5041;DHT22;2539;52.568;13.364;2024-03-08T02:53:08;0.00;99.90
5041;DHT22;2539;52.568;13.364;2024-03-08T02:55:35;0.00;99.90
5041;DHT22;2539;52.568;13.364;2024-03-08T02:58:02;0.10;99.90
5041;DHT22;2539;52.568;13.364;2024-03-08T03:00:34;0.10;99.90
5041;DHT22;2539;52.568;13.364;2024-03-08T03:03:00;0.20;99.90
5041;DHT22;2539;52.568;13.364;2024-03-08T03:05:29;0.20;99.90
5041;DHT22;2539;52.568;13.364;2024-03-08T03:07:58;0.20;99.90
5041;DHT22;2539;52.568;13.364;2024-03-08T03:10:25;0.10;99.90
5041;DHT22;2539;52.568;13.364;2024-03-08T03:12:52;0.00;99.90
5041;DHT22;2539;52.568;13.364;2024-03-08T03:15:18;0.00;99.90
5041;DHT22;2539;52.568;13.364;2024-03-08T03:17:51;0.00;99.90
5041;DHT22;2539;52.568;13.364;2024-03-08T03:20:18;-0.10;99.90
5041;DHT22;2539;52.568;13.364;2024-03-08T03:22:59;-0.10;99.90
5041;DHT22;2539;52.568;13.364;2024-03-08T03:25:27;-0.10;99.90
5041;DHT22;2539;52.568;13.364;2024-03-08T03:27:59;-0.20;99.90
5041;DHT22;2539;52.568;13.364;2024-03-08T03:30:27;-0.20;99.90
5041;DHT22;2539;52.568;13.364;2024-03-08T03:33:00;-0.20;99.90
5041;DHT22;2539;52.568;13.364;2024-03-08T03:35:27;-0.20;99.90
5041;DHT22;2539;52.568;13.364;2024-03-08T03:37:54;-0.20;99.90
5041;DHT22;2539;52.568;13.364;2024-03-08T03:40:49;-0.30;99.90
5041;DHT22;2539;52.568;13.364;2024-03-08T03:43:18;-0.30;99.90
5041;DHT22;2539;52.568;13.364;2024-03-08T03:45:44;-0.30;99.90
5041;DHT22;2539;52.568;13.364;2024-03-08T03:48:09;-0.40;99.90
5041;DHT22;2539;52.568;13.364;2024-03-08T03:50:35;-0.40;99.90
5041;DHT22;2539;52.568;13.364;2024-03-08T03:53:01;-0.40;99.90
5041;DHT22;2539;52.568;13.364;2024-03-08T03:55:28;-0.30;99.90
5041;DHT22;2539;52.568;13.364;2024-03-08T03:57:55;-0.40;99.90
5041;DHT22;2539;52.568;13.364;2024-03-08T04:00:21;-0.40;99.90
5041;DHT22;2539;52.568;13.364;2024-03-08T04:02:47;-0.40;99.90
5041;DHT22;2539;52.568;13.364;2024-03-08T04:05:14;-0.40;99.90
5041;DHT22;2539;52.568;13.364;2024-03-08T04:07:40;-0.40;99.90
5041;DHT22;2539;52.568;13.364;2024-03-08T04:10:09;-0.50;99.90
5041;DHT22;2539;52.568;13.364;2024-03-08T04:12:35;-0.50;99.90
5041;DHT22;2539;52.568;13.364;2024-03-08T04:15:02;-0.50;99.90
5041;DHT22;2539;52.568;13.364;2024-03-08T04:17:28;-0.50;99.90
5041;DHT22;2539;52.568;13.364;2024-03-08T04:19:54;-0.50;99.90
5041;DHT22;2539;52.568;13.364;2024-03-08T04:22:21;-0.50;99.90
5041;DHT22;2539;52.568;13.364;2024-03-08T04:24:47;-0.70;99.90
5041;DHT22;2539;52.568;13.364;2024-03-08T04:27:13;-0.60;99.90
5041;DHT22;2539;52.568;13.364;2024-03-08T04:29:40;-0.60;99.90
5041;DHT22;2539;52.568;13.364;2024-03-08T04:32:08;-0.60;99.90
5041;DHT22;2539;52.568;13.364;2024-03-08T04:34:34;-0.50;99.90
5041;DHT22;2539;52.568;13.364;2024-03-08T04:37:01;-0.50;99.90
5041;DHT22;2539;52.568;13.364;2024-03-08T04:39:28;-0.40;99.90
5041;DHT22;2539;52.568;13.364;2024-03-08T04:41:56;-0.40;99.90
5041;DHT22;2539;52.568;13.364;2024-03-08T04:44:24;-0.40;99.90
5041;DHT22;2539;52.568;13.364;2024-03-08T04:46:50;-0.30;99.90
5041;DHT22;2539;52.568;13.364;2024-03-08T04:49:17;-0.40;99.90
5041;DHT22;2539;52.568;13.364;2024-03-08T04:51:43;-0.50;99.90
5041;DHT22;2539;52.568;13.364;2024-03-08T04:54:11;-0.50;99.90
5041;DHT22;2539;52.568;13.364;2024-03-08T04:56:37;-0.50;99.90
5041;DHT22;2539;52.568;13.364;2024-03-08T04:59:03;-0.50;99.90
5041;DHT22;2539;52.568;13.364;2024-03-08T05:01:29;-0.40;99.90
5041;DHT22;2539;52.568;13.364;2024-03-08T05:03:56;-0.40;99.90
5041;DHT22;2539;52.568;13.364;2024-03-08T05:06:22;-0.40;99.90
5041;DHT22;2539;52.568;13.364;2024-03-08T05:08:49;-0.30;99.90
5041;DHT22;2539;52.568;13.364;2024-03-08T05:11:15;-0.30;99.90
5041;DHT22;2539;52.568;13.364;2024-03-08T05:13:41;-0.30;99.90
5041;DHT22;2539;52.568;13.364;2024-03-08T05:16:08;-0.20;99.90
5041;DHT22;2539;52.568;13.364;2024-03-08T05:18:34;-0.20;99.90
5041;DHT22;2539;52.568;13.364;2024-03-08T05:21:02;-0.20;99.90
5041;DHT22;2539;52.568;13.364;2024-03-08T05:23:30;-0.30;99.90
5041;DHT22;2539;52.568;13.364;2024-03-08T05:25:56;-0.30;99.90
5041;DHT22;2539;52.568;13.364;2024-03-08T05:28:23;-0.40;99.90
5041;DHT22;2539;52.568;13.364;2024-03-08T05:30:49;-0.40;99.90
5041;DHT22;2539;52.568;13.364;2024-03-08T05:33:16;-0.40;99.90
5041;DHT22;2539;52.568;13.364;2024-03-08T05:35:42;-0.40;99.90
5041;DHT22;2539;52.568;13.364;2024-03-08T05:38:09;-0.40;99.90
5041;DHT22;2539;52.568;13.364;2024-03-08T05:40:38;-0.40;99.90
5041;DHT22;2539;52.568;13.364;2024-03-08T05:43:05;-0.50;99.90
5041;DHT22;2539;52.568;13.364;2024-03-08T05:45:31;-0.50;99.90
5041;DHT22;2539;52.568;13.364;2024-03-08T05:47:57;-0.60;99.90
5041;DHT22;2539;52.568;13.364;2024-03-08T05:50:24;-0.60;99.90
5041;DHT22;2539;52.568;13.364;2024-03-08T05:52:49;-0.60;99.90
5041;DHT22;2539;52.568;13.364;2024-03-08T05:55:15;-0.60;99.90
5041;DHT22;2539;52.568;13.364;2024-03-08T05:57:41;-0.60;99.90
5041;DHT22;2539;52.568;13.364;2024-03-08T06:00:08;-0.60;99.90
5041;DHT22;2539;52.568;13.364;2024-03-08T06:02:38;-0.50;99.90
5041;DHT22;2539;52.568;13.364;2024-03-08T06:05:10;-0.60;99.90
5041;DHT22;2539;52.568;13.364;2024-03-08T06:07:37;-0.60;99.90
5041;DHT22;2539;52.568;13.364;2024-03-08T06:10:08;-0.50;99.90
5041;DHT22;2539;52.568;13.364;2024-03-08T06:12:36;-0.30;99.90
5041;DHT22;2539;52.568;13.364;2024-03-08T06:15:09;-0.20;99.90
5041;DHT22;2539;52.568;13.364;2024-03-08T06:17:36;-0.20;99.90
5041;DHT22;2539;52.568;13.364;2024-03-08T06:20:02;-0.10;99.90
5041;DHT22;2539;52.568;13.364;2024-03-08T06:22:30;-0.10;99.90
5041;DHT22;2539;52.568;13.364;2024-03-08T06:24:56;-0.10;99.90
5041;DHT22;2539;52.568;13.364;2024-03-08T06:27:22;0.00;99.90
5041;DHT22;2539;52.568;13.364;2024-03-08T06:29:49;0.10;99.90
5041;DHT22;2539;52.568;13.364;2024-03-08T06:32:15;0.20;99.90
5041;DHT22;2539;52.568;13.364;2024-03-08T06:34:45;0.30;99.90
5041;DHT22;2539;52.568;13.364;2024-03-08T06:37:11;0.30;99.90
5041;DHT22;2539;52.568;13.364;2024-03-08T06:39:37;0.30;99.90
5041;DHT22;2539;52.568;13.364;2024-03-08T06:42:03;0.30;99.90
5041;DHT22;2539;52.568;13.364;2024-03-08T06:44:31;0.50;99.90
5041;DHT22;2539;52.568;13.364;2024-03-08T06:46:57;0.70;99.90
5041;DHT22;2539;52.568;13.364;2024-03-08T06:49:24;0.80;99.90
5041;DHT22;2539;52.568;13.364;2024-03-08T06:51:53;0.80;99.90
5041;DHT22;2539;52.568;13.364;2024-03-08T06:54:19;0.90;99.90
5041;DHT22;2539;52.568;13.364;2024-03-08T06:56:45;1.00;99.90
5041;DHT22;2539;52.568;13.364;2024-03-08T06:59:11;1.10;99.90
5041;DHT22;2539;52.568;13.364;2024-03-08T07:01:38;1.10;99.90
5041;DHT22;2539;52.568;13.364;2024-03-08T07:04:04;1.10;99.90
5041;DHT22;2539;52.568;13.364;2024-03-08T07:06:31;1.10;99.90
5041;DHT22;2539;52.568;13.364;2024-03-08T07:08:59;1.10;99.90
5041;DHT22;2539;52.568;13.364;2024-03-08T07:11:26;1.10;99.90
5041;DHT22;2539;52.568;13.364;2024-03-08T07:13:52;1.20;99.90
5041;DHT22;2539;52.568;13.364;2024-03-08T07:16:19;1.20;99.90
5041;DHT22;2539;52.568;13.364;2024-03-08T07:18:45;1.30;99.90
5041;DHT22;2539;52.568;13.364;2024-03-08T07:21:12;1.30;99.90
5041;DHT22;2539;52.568;13.364;2024-03-08T07:23:38;1.40;99.90
5041;DHT22;2539;52.568;13.364;2024-03-08T07:26:28;1.50;99.90
5041;DHT22;2539;52.568;13.364;2024-03-08T07:28:56;1.60;99.90
5041;DHT22;2539;52.568;13.364;2024-03-08T07:31:24;1.70;99.90
5041;DHT22;2539;52.568;13.364;2024-03-08T07:34:04;1.80;99.90
5041;DHT22;2539;52.568;13.364;2024-03-08T07:36:36;1.90;99.90
5041;DHT22;2539;52.568;13.364;2024-03-08T07:39:02;2.00;99.90
5041;DHT22;2539;52.568;13.364;2024-03-08T07:41:31;2.00;99.90
5041;DHT22;2539;52.568;13.364;2024-03-08T07:43:58;2.10;99.90
5041;DHT22;2539;52.568;13.364;2024-03-08T07:46:24;2.10;99.90
5041;DHT22;2539;52.568;13.364;2024-03-08T07:48:50;2.20;99.90
5041;DHT22;2539;52.568;13.364;2024-03-08T07:51:17;2.20;99.90
5041;DHT22;2539;52.568;13.364;2024-03-08T07:53:44;2.20;99.90
5041;DHT22;2539;52.568;13.364;2024-03-08T07:56:10;2.20;99.90
5041;DHT22;2539;52.568;13.364;2024-03-08T07:58:39;2.20;99.90
5041;DHT22;2539;52.568;13.364;2024-03-08T08:01:07;2.30;99.90
5041;DHT22;2539;52.568;13.364;2024-03-08T08:03:33;2.30;99.90
5041;DHT22;2539;52.568;13.364;2024-03-08T08:05:59;2.30;99.90
5041;DHT22;2539;52.568;13.364;2024-03-08T08:08:25;2.40;99.90
5041;DHT22;2539;52.568;13.364;2024-03-08T08:10:52;2.50;99.90
5041;DHT22;2539;52.568;13.364;2024-03-08T08:13:18;2.80;99.90
5041;DHT22;2539;52.568;13.364;2024-03-08T08:15:45;3.10;99.90
5041;DHT22;2539;52.568;13.364;2024-03-08T08:18:11;3.20;99.90
5041;DHT22;2539;52.568;13.364;2024-03-08T08:20:38;3.40;99.90
5041;DHT22;2539;52.568;13.364;2024-03-08T08:23:04;3.50;99.90
5041;DHT22;2539;52.568;13.364;2024-03-08T08:25:30;3.60;99.90
5041;DHT22;2539;52.568;13.364;2024-03-08T08:27:57;3.70;99.90
5041;DHT22;2539;52.568;13.364;2024-03-08T08:30:23;3.80;99.90
5041;DHT22;2539;52.568;13.364;2024-03-08T08:32:49;4.00;99.90
5041;DHT22;2539;52.568;13.364;2024-03-08T08:35:16;4.00;99.90
5041;DHT22;2539;52.568;13.364;2024-03-08T08:37:44;4.10;99.90
5041;DHT22;2539;52.568;13.364;2024-03-08T08:40:10;4.20;99.90
5041;DHT22;2539;52.568;13.364;2024-03-08T08:42:40;4.40;99.90
5041;DHT22;2539;52.568;13.364;2024-03-08T08:45:07;4.50;99.90
5041;DHT22;2539;52.568;13.364;2024-03-08T08:47:38;4.80;99.90
5041;DHT22;2539;52.568;13.364;2024-03-08T08:50:04;4.90;99.90
5041;DHT22;2539;52.568;13.364;2024-03-08T08:52:31;5.20;99.90
5041;DHT22;2539;52.568;13.364;2024-03-08T08:54:58;5.30;99.90
5041;DHT22;2539;52.568;13.364;2024-03-08T08:57:25;5.20;99.90
5041;DHT22;2539;52.568;13.364;2024-03-08T08:59:53;5.20;99.90
5041;DHT22;2539;52.568;13.364;2024-03-08T09:02:19;5.20;99.90
5041;DHT22;2539;52.568;13.364;2024-03-08T09:04:47;5.20;99.90
5041;DHT22;2539;52.568;13.364;2024-03-08T09:07:14;5.30;99.90
5041;DHT22;2539;52.568;13.364;2024-03-08T09:09:42;5.30;99.90
5041;DHT22;2539;52.568;13.364;2024-03-08T09:12:08;5.40;99.90
5041;DHT22;2539;52.568;13.364;2024-03-08T09:14:35;5.40;99.90
5041;DHT22;2539;52.568;13.364;2024-03-08T09:17:02;5.50;99.90
5041;DHT22;2539;52.568;13.364;2024-03-08T09:19:28;5.60;99.90
5041;DHT22;2539;52.568;13.364;2024-03-08T09:21:54;5.70;99.90
5041;DHT22;2539;52.568;13.364;2024-03-08T09:24:20;5.70;99.90
5041;DHT22;2539;52.568;13.364;2024-03-08T09:26:47;5.60;99.90
5041;DHT22;2539;52.568;13.364;2024-03-08T09:29:13;5.70;99.90
5041;DHT22;2539;52.568;13.364;2024-03-08T09:31:39;5.70;99.90
5041;DHT22;2539;52.568;13.364;2024-03-08T09:34:07;5.70;99.90
5041;DHT22;2539;52.568;13.364;2024-03-08T09:36:34;5.80;99.90
5041;DHT22;2539;52.568;13.364;2024-03-08T09:39:00;5.80;99.90
5041;DHT22;2539;52.568;13.364;2024-03-08T09:41:26;5.80;99.90
5041;DHT22;2539;52.568;13.364;2024-03-08T09:43:51;5.90;99.90
5041;DHT22;2539;52.568;13.364;2024-03-08T09:46:19;5.90;99.90
5041;DHT22;2539;52.568;13.364;2024-03-08T09:48:48;6.10;99.90
5041;DHT22;2539;52.568;13.364;2024-03-08T09:51:15;6.10;99.90
5041;DHT22;2539;52.568;13.364;2024-03-08T09:53:42;6.20;99.90
5041;DHT22;2539;52.568;13.364;2024-03-08T09:56:08;6.30;99.90
5041;DHT22;2539;52.568;13.364;2024-03-08T09:58:33;6.30;99.90
5041;DHT22;2539;52.568;13.364;2024-03-08T10:00:59;6.40;99.90
5041;DHT22;2539;52.568;13.364;2024-03-08T10:03:30;6.40;99.90
5041;DHT22;2539;52.568;13.364;2024-03-08T10:05:58;6.40;99.90
5041;DHT22;2539;52.568;13.364;2024-03-08T10:08:28;6.50;99.90
5041;DHT22;2539;52.568;13.364;2024-03-08T10:10:57;6.50;99.90
5041;DHT22;2539;52.568;13.364;2024-03-08T10:13:27;6.60;99.90
5041;DHT22;2539;52.568;13.364;2024-03-08T10:15:54;6.70;99.90
5041;DHT22;2539;52.568;13.364;2024-03-08T10:18:21;6.60;99.90
5041;DHT22;2539;52.568;13.364;2024-03-08T10:21:05;6.60;99.90
5041;DHT22;2539;52.568;13.364;2024-03-08T10:23:33;6.70;99.90
5041;DHT22;2539;52.568;13.364;2024-03-08T10:26:13;6.70;99.90
5041;DHT22;2539;52.568;13.364;2024-03-08T10:28:46;6.70;99.90
5041;DHT22;2539;52.568;13.364;2024-03-08T10:31:13;6.80;99.90
5041;DHT22;2539;52.568;13.364;2024-03-08T10:33:41;6.70;99.90
5041;DHT22;2539;52.568;13.364;2024-03-08T10:36:08;6.80;99.90
5041;DHT22;2539;52.568;13.364;2024-03-08T10:38:41;6.80;99.90
5041;DHT22;2539;52.568;13.364;2024-03-08T10:41:08;6.90;99.90
5041;DHT22;2539;52.568;13.364;2024-03-08T10:46:53;7.00;99.90
5041;DHT22;2539;52.568;13.364;2024-03-08T10:49:26;7.00;99.90
5041;DHT22;2539;52.568;13.364;2024-03-08T10:51:57;7.10;99.90
5041;DHT22;2539;52.568;13.364;2024-03-08T10:54:25;7.10;99.90
5041;DHT22;2539;52.568;13.364;2024-03-08T10:56:52;7.10;99.90
5041;DHT22;2539;52.568;13.364;2024-03-08T10:59:19;7.10;99.90
5041;DHT22;2539;52.568;13.364;2024-03-08T11:01:47;7.10;99.90
5041;DHT22;2539;52.568;13.364;2024-03-08T11:04:14;7.20;99.90
5041;DHT22;2539;52.568;13.364;2024-03-08T11:06:42;7.30;99.90
5041;DHT22;2539;52.568;13.364;2024-03-08T11:09:35;7.30;99.90
5041;DHT22;2539;52.568;13.364;2024-03-08T11:12:27;7.40;99.90
5041;DHT22;2539;52.568;13.364;2024-03-08T11:15:02;7.60;99.90
5041;DHT22;2539;52.568;13.364;2024-03-08T11:20:12;7.80;99.90
5041;DHT22;2539;52.568;13.364;2024-03-08T11:22:49;7.80;99.90
5041;DHT22;2539;52.568;13.364;2024-03-08T11:25:36;7.80;99.90
5041;DHT22;2539;52.568;13.364;2024-03-08T11:33:28;7.70;99.90
5041;DHT22;2539;52.568;13.364;2024-03-08T11:36:07;7.70;99.90
5041;DHT22;2539;52.568;13.364;2024-03-08T11:38:43;7.70;99.90
5041;DHT22;2539;52.568;13.364;2024-03-08T11:41:10;7.70;99.70
5041;DHT22;2539;52.568;13.364;2024-03-08T11:43:40;7.80;99.90
5041;DHT22;2539;52.568;13.364;2024-03-08T11:46:10;7.90;99.70
5041;DHT22;2539;52.568;13.364;2024-03-08T11:48:39;7.90;99.70
5041;DHT22;2539;52.568;13.364;2024-03-08T11:51:05;8.00;99.60
5041;DHT22;2539;52.568;13.364;2024-03-08T11:53:31;8.00;99.20
5041;DHT22;2539;52.568;13.364;2024-03-08T11:56:08;7.90;99.00
5041;DHT22;2539;52.568;13.364;2024-03-08T11:58:35;8.00;99.10
5041;DHT22;2539;52.568;13.364;2024-03-08T12:01:05;8.10;98.80
5041;DHT22;2539;52.568;13.364;2024-03-08T12:03:32;8.20;98.80
5041;DHT22;2539;52.568;13.364;2024-03-08T12:06:02;8.30;98.90
5041;DHT22;2539;52.568;13.364;2024-03-08T12:08:32;8.40;99.10
5041;DHT22;2539;52.568;13.364;2024-03-08T12:10:59;8.50;99.00
5041;DHT22;2539;52.568;13.364;2024-03-08T12:13:33;8.40;99.10
5041;DHT22;2539;52.568;13.364;2024-03-08T12:16:03;8.40;99.50
5041;DHT22;2539;52.568;13.364;2024-03-08T12:18:37;8.40;99.40
5041;DHT22;2539;52.568;13.364;2024-03-08T12:21:08;8.40;99.20
5041;DHT22;2539;52.568;13.364;2024-03-08T12:23:35;8.50;98.40
5041;DHT22;2539;52.568;13.364;2024-03-08T12:26:13;8.50;96.50
5041;DHT22;2539;52.568;13.364;2024-03-08T12:28:40;8.50;96.70
5041;DHT22;2539;52.568;13.364;2024-03-08T12:31:07;8.60;98.10
5041;DHT22;2539;52.568;13.364;2024-03-08T12:33:56;8.40;98.70
5041;DHT22;2539;52.568;13.364;2024-03-08T12:36:24;8.40;98.20
5041;DHT22;2539;52.568;13.364;2024-03-08T12:38:51;8.40;98.50
5041;DHT22;2539;52.568;13.364;2024-03-08T12:41:18;8.40;97.90
5041;DHT22;2539;52.568;13.364;2024-03-08T12:43:45;8.50;98.00
5041;DHT22;2539;52.568;13.364;2024-03-08T12:46:17;8.50;97.40
5041;DHT22;2539;52.568;13.364;2024-03-08T12:48:46;8.60;97.30
5041;DHT22;2539;52.568;13.364;2024-03-08T12:51:15;8.60;97.50
5041;DHT22;2539;52.568;13.364;2024-03-08T12:53:42;8.60;97.50
5041;DHT22;2539;52.568;13.364;2024-03-08T12:56:10;8.60;97.70
5041;DHT22;2539;52.568;13.364;2024-03-08T12:58:37;8.60;97.40
5041;DHT22;2539;52.568;13.364;2024-03-08T13:01:04;8.60;96.90
5041;DHT22;2539;52.568;13.364;2024-03-08T13:03:34;8.50;97.20
5041;DHT22;2539;52.568;13.364;2024-03-08T13:06:05;8.50;97.80
5041;DHT22;2539;52.568;13.364;2024-03-08T13:08:38;8.50;97.30
5041;DHT22;2539;52.568;13.364;2024-03-08T13:11:07;8.50;97.60
5041;DHT22;2539;52.568;13.364;2024-03-08T13:13:34;8.50;97.50
5041;DHT22;2539;52.568;13.364;2024-03-08T13:16:06;8.60;97.50
5041;DHT22;2539;52.568;13.364;2024-03-08T13:18:36;8.50;97.80
5041;DHT22;2539;52.568;13.364;2024-03-08T13:21:03;8.50;98.20
5041;DHT22;2539;52.568;13.364;2024-03-08T13:23:33;8.50;98.30
5041;DHT22;2539;52.568;13.364;2024-03-08T13:26:10;8.60;98.50
5041;DHT22;2539;52.568;13.364;2024-03-08T13:28:48;8.60;98.60
5041;DHT22;2539;52.568;13.364;2024-03-08T13:31:15;8.60;98.80
5041;DHT22;2539;52.568;13.364;2024-03-08T13:33:41;8.60;99.20
5041;DHT22;2539;52.568;13.364;2024-03-08T13:36:13;8.60;98.80
5041;DHT22;2539;52.568;13.364;2024-03-08T13:38:48;8.60;99.20
5041;DHT22;2539;52.568;13.364;2024-03-08T13:41:15;8.70;98.70
5041;DHT22;2539;52.568;13.364;2024-03-08T13:43:47;8.80;98.40
5041;DHT22;2539;52.568;13.364;2024-03-08T13:46:16;8.80;99.10
5041;DHT22;2539;52.568;13.364;2024-03-08T13:48:43;8.90;99.00
5041;DHT22;2539;52.568;13.364;2024-03-08T13:51:09;9.00;98.20
5041;DHT22;2539;52.568;13.364;2024-03-08T13:53:41;9.00;97.10
5041;DHT22;2539;52.568;13.364;2024-03-08T13:56:07;8.90;96.70
5041;DHT22;2539;52.568;13.364;2024-03-08T13:58:36;9.00;96.90
5041;DHT22;2539;52.568;13.364;2024-03-08T14:01:03;8.90;97.00
5041;DHT22;2539;52.568;13.364;2024-03-08T14:03:31;9.00;98.00
5041;DHT22;2539;52.568;13.364;2024-03-08T14:05:58;9.10;98.70
5041;DHT22;2539;52.568;13.364;2024-03-08T14:08:26;9.00;98.60
5041;DHT22;2539;52.568;13.364;2024-03-08T14:10:53;9.00;99.00
5041;DHT22;2539;52.568;13.364;2024-03-08T14:13:20;9.00;99.20
5041;DHT22;2539;52.568;13.364;2024-03-08T14:15:47;9.00;99.30
5041;DHT22;2539;52.568;13.364;2024-03-08T14:18:14;8.90;99.40
5041;DHT22;2539;52.568;13.364;2024-03-08T14:20:41;8.80;99.50
5041;DHT22;2539;52.568;13.364;2024-03-08T14:23:08;8.80;99.60
5041;DHT22;2539;52.568;13.364;2024-03-08T14:25:34;8.80;99.60
5041;DHT22;2539;52.568;13.364;2024-03-08T14:28:00;8.80;99.40
5041;DHT22;2539;52.568;13.364;2024-03-08T14:30:34;8.80;99.70
5041;DHT22;2539;52.568;13.364;2024-03-08T14:33:09;8.70;99.70
5041;DHT22;2539;52.568;13.364;2024-03-08T14:35:36;8.80;99.70
5041;DHT22;2539;52.568;13.364;2024-03-08T14:38:02;8.90;99.60
5041;DHT22;2539;52.568;13.364;2024-03-08T14:40:29;8.80;99.70
5041;DHT22;2539;52.568;13.364;2024-03-08T14:42:56;8.80;99.40
5041;DHT22;2539;52.568;13.364;2024-03-08T14:45:23;8.80;99.20
5041;DHT22;2539;52.568;13.364;2024-03-08T14:47:50;8.80;99.00
5041;DHT22;2539;52.568;13.364;2024-03-08T14:50:17;8.70;98.90
5041;DHT22;2539;52.568;13.364;2024-03-08T14:52:44;8.60;98.60
5041;DHT22;2539;52.568;13.364;2024-03-08T14:55:11;8.60;98.60
5041;DHT22;2539;52.568;13.364;2024-03-08T14:57:41;8.60;98.90
5041;DHT22;2539;52.568;13.364;2024-03-08T15:00:08;8.60;99.30
5041;DHT22;2539;52.568;13.364;2024-03-08T15:02:45;8.70;98.70
5041;DHT22;2539;52.568;13.364;2024-03-08T15:05:13;8.70;97.60
5041;DHT22;2539;52.568;13.364;2024-03-08T15:07:40;8.70;97.60
5041;DHT22;2539;52.568;13.364;2024-03-08T15:10:09;8.70;97.70
5041;DHT22;2539;52.568;13.364;2024-03-08T15:12:43;8.70;97.90
5041;DHT22;2539;52.568;13.364;2024-03-08T15:15:12;8.70;98.20
5041;DHT22;2539;52.568;13.364;2024-03-08T15:17:44;8.60;98.60
5041;DHT22;2539;52.568;13.364;2024-03-08T15:20:13;8.60;98.80
5041;DHT22;2539;52.568;13.364;2024-03-08T15:22:46;8.60;99.30
5041;DHT22;2539;52.568;13.364;2024-03-08T15:25:12;8.50;99.10
5041;DHT22;2539;52.568;13.364;2024-03-08T15:27:47;8.60;99.00
5041;DHT22;2539;52.568;13.364;2024-03-08T15:30:13;8.50;98.70
5041;DHT22;2539;52.568;13.364;2024-03-08T15:32:48;8.50;98.60
5041;DHT22;2539;52.568;13.364;2024-03-08T15:35:16;8.50;98.80
5041;DHT22;2539;52.568;13.364;2024-03-08T15:37:43;8.40;98.80
5041;DHT22;2539;52.568;13.364;2024-03-08T15:40:12;8.40;98.60
5041;DHT22;2539;52.568;13.364;2024-03-08T15:42:57;8.40;98.70
5041;DHT22;2539;52.568;13.364;2024-03-08T15:45:23;8.40;98.00
5041;DHT22;2539;52.568;13.364;2024-03-08T15:47:53;8.40;97.70
5041;DHT22;2539;52.568;13.364;2024-03-08T15:50:18;8.40;97.60
5041;DHT22;2539;52.568;13.364;2024-03-08T15:52:50;8.40;97.30
5041;DHT22;2539;52.568;13.364;2024-03-08T15:55:16;8.50;96.90
5041;DHT22;2539;52.568;13.364;2024-03-08T15:57:47;8.40;97.10
5041;DHT22;2539;52.568;13.364;2024-03-08T16:00:18;8.60;97.60
5041;DHT22;2539;52.568;13.364;2024-03-08T16:02:57;8.70;96.90
5041;DHT22;2539;52.568;13.364;2024-03-08T16:05:23;8.90;96.90
5041;DHT22;2539;52.568;13.364;2024-03-08T16:07:50;8.90;96.40
5041;DHT22;2539;52.568;13.364;2024-03-08T16:10:16;9.00;96.50
5041;DHT22;2539;52.568;13.364;2024-03-08T16:12:42;9.00;96.50
5041;DHT22;2539;52.568;13.364;2024-03-08T16:15:09;9.10;96.20